sensor_id;sensor_type;location;lat;lon;timestamp;temperature;humidity
1259;DHT22;619;51.472;6.628;2023-12-20T00:01:57;15.60;85.60
1259;DHT22;619;51.472;6.628;2023-12-20T00:04:22;15.50;85.50
1259;DHT22;619;51.472;6.628;2023-12-20T00:06:50;15.40;85.40
1259;DHT22;619;51.472;6.628;2023-12-20T00:09:18;15.30;85.40
1259;DHT22;619;51.472;6.628;2023-12-20T00:11:44;15.20;85.70
1259;DHT22;619;51.472;6.628;2023-12-20T00:14:10;15.10;85.60
1259;DHT22;619;51.472;6.628;2023-12-20T00:16:35;15.10;85.70
1259;DHT22;619;51.472;6.628;2023-12-20T00:19:01;15.00;85.70
1259;DHT22;619;51.472;6.628;2023-12-20T00:21:29;14.90;85.70
1259;DHT22;619;51.472;6.628;2023-12-20T00:23:54;14.80;85.80
1259;DHT22;619;51.472;6.628;2023-12-20T00:26:22;14.80;86.00
1259;DHT22;619;51.472;6.628;2023-12-20T00:28:50;14.80;86.20
1259;DHT22;619;51.472;6.628;2023-12-20T00:31:18;14.80;86.20
1259;DHT22;619;51.472;6.628;2023-12-20T00:33:43;14.70;86.00
1259;DHT22;619;51.472;6.628;2023-12-20T00:36:09;14.60;86.00
1259;DHT22;619;51.472;6.628;2023-12-20T00:38:37;14.60;86.00
1259;DHT22;619;51.472;6.628;2023-12-20T00:41:03;14.60;86.00
1259;DHT22;619;51.472;6.628;2023-12-20T00:43:31;14.50;86.20
1259;DHT22;619;51.472;6.628;2023-12-20T00:45:57;14.40;86.30
1259;DHT22;619;51.472;6.628;2023-12-20T00:48:22;14.40;86.50
1259;DHT22;619;51.472;6.628;2023-12-20T00:50:48;14.30;86.70
1259;DHT22;619;51.472;6.628;2023-12-20T00:53:16;14.30;86.90
1259;DHT22;619;51.472;6.628;2023-12-20T00:55:42;14.20;86.90
1259;DHT22;619;51.472;6.628;2023-12-20T00:58:10;14.20;86.80
1259;DHT22;619;51.472;6.628;2023-12-20T01:00:40;14.20;86.90
1259;DHT22;619;51.472;6.628;2023-12-20T01:03:07;14.20;86.90
1259;DHT22;619;51.472;6.628;2023-12-20T01:05:35;14.30;87.70
1259;DHT22;619;51.472;6.628;2023-12-20T01:08:03;14.40;86.90
1259;DHT22;619;51.472;6.628;2023-12-20T01:10:31;14.30;86.70
1259;DHT22;619;51.472;6.628;2023-12-20T01:12:57;14.40;86.70
1259;DHT22;619;51.472;6.628;2023-12-20T01:15:29;14.50;86.70
1259;DHT22;619;51.472;6.628;2023-12-20T01:17:57;14.50;86.50
1259;DHT22;619;51.472;6.628;2023-12-20T01:20:27;14.50;86.10
1259;DHT22;619;51.472;6.628;2023-12-20T01:22:52;14.50;86.00
1259;DHT22;619;51.472;6.628;2023-12-20T01:25:18;14.60;85.90
1259;DHT22;619;51.472;6.628;2023-12-20T01:27:44;14.60;85.40
1259;DHT22;619;51.472;6.628;2023-12-20T01:30:12;14.70;85.20
1259;DHT22;619;51.472;6.628;2023-12-20T01:32:37;14.60;84.80
1259;DHT22;619;51.472;6.628;2023-12-20T01:35:03;14.50;84.40
1259;DHT22;619;51.472;6.628;2023-12-20T01:37:29;14.50;84.30
1259;DHT22;619;51.472;6.628;2023-12-20T01:39:57;14.40;84.20
1259;DHT22;619;51.472;6.628;2023-12-20T01:42:25;14.30;84.20
1259;DHT22;619;51.472;6.628;2023-12-20T01:44:52;14.30;84.30
1259;DHT22;619;51.472;6.628;2023-12-20T01:47:18;14.20;84.40
1259;DHT22;619;51.472;6.628;2023-12-20T01:49:44;14.20;84.40
1259;DHT22;619;51.472;6.628;2023-12-20T01:52:09;14.20;84.40
1259;DHT22;619;51.472;6.628;2023-12-20T01:54:38;14.20;84.20
1259;DHT22;619;51.472;6.628;2023-12-20T01:57:08;14.20;84.20
1259;DHT22;619;51.472;6.628;2023-12-20T01:59:39;14.10;84.00
1259;DHT22;619;51.472;6.628;2023-12-20T02:02:05;14.10;83.80
1259;DHT22;619;51.472;6.628;2023-12-20T02:04:35;14.10;83.80
1259;DHT22;619;51.472;6.628;2023-12-20T02:07:02;14.10;83.80
1259;DHT22;619;51.472;6.628;2023-12-20T02:09:28;14.10;83.80
1259;DHT22;619;51.472;6.628;2023-12-20T02:11:54;14.10;83.90
1259;DHT22;619;51.472;6.628;2023-12-20T02:14:20;14.00;83.70
1259;DHT22;619;51.472;6.628;2023-12-20T02:16:45;14.00;83.60
1259;DHT22;619;51.472;6.628;2023-12-20T02:19:14;14.00;83.60
1259;DHT22;619;51.472;6.628;2023-12-20T02:21:40;13.90;83.60
1259;DHT22;619;51.472;6.628;2023-12-20T02:24:06;13.90;83.70
1259;DHT22;619;51.472;6.628;2023-12-20T02:26:33;13.80;83.60
1259;DHT22;619;51.472;6.628;2023-12-20T02:29:02;13.80;83.80
1259;DHT22;619;51.472;6.628;2023-12-20T02:31:27;13.80;83.90
1259;DHT22;619;51.472;6.628;2023-12-20T02:33:56;13.70;83.70
1259;DHT22;619;51.472;6.628;2023-12-20T02:36:21;13.70;83.90
1259;DHT22;619;51.472;6.628;2023-12-20T02:38:47;13.70;83.90
1259;DHT22;619;51.472;6.628;2023-12-20T02:41:13;13.60;83.70
1259;DHT22;619;51.472;6.628;2023-12-20T02:43:41;13.60;83.80
1259;DHT22;619;51.472;6.628;2023-12-20T02:46:06;13.50;83.60
1259;DHT22;619;51.472;6.628;2023-12-20T02:48:32;13.40;83.60
1259;DHT22;619;51.472;6.628;2023-12-20T02:50:58;13.40;83.70
1259;DHT22;619;51.472;6.628;2023-12-20T02:53:28;13.30;83.80
1259;DHT22;619;51.472;6.628;2023-12-20T02:55:56;13.30;84.00
1259;DHT22;619;51.472;6.628;2023-12-20T02:58:21;13.20;84.20
1259;DHT22;619;51.472;6.628;2023-12-20T03:00:47;13.20;84.20
1259;DHT22;619;51.472;6.628;2023-12-20T03:03:15;13.20;84.50
1259;DHT22;619;51.472;6.628;2023-12-20T03:05:45;13.20;85.10
1259;DHT22;619;51.472;6.628;2023-12-20T03:08:11;13.20;84.50
1259;DHT22;619;51.472;6.628;2023-12-20T03:10:39;13.20;84.50
1259;DHT22;619;51.472;6.628;2023-12-20T03:13:07;13.20;84.50
1259;DHT22;619;51.472;6.628;2023-12-20T03:15:33;13.20;84.50
1259;DHT22;619;51.472;6.628;2023-12-20T03:17:58;13.10;84.60
1259;DHT22;619;51.472;6.628;2023-12-20T03:20:26;13.20;84.70
1259;DHT22;619;51.472;6.628;2023-12-20T03:22:56;13.20;84.70
1259;DHT22;619;51.472;6.628;2023-12-20T03:25:24;13.20;84.50
1259;DHT22;619;51.472;6.628;2023-12-20T03:27:49;13.20;84.50
1259;DHT22;619;51.472;6.628;2023-12-20T03:30:18;13.20;84.50
1259;DHT22;619;51.472;6.628;2023-12-20T03:32:47;13.30;84.40
1259;DHT22;619;51.472;6.628;2023-12-20T03:35:15;13.30;84.30
1259;DHT22;619;51.472;6.628;2023-12-20T03:37:40;13.30;84.10
1259;DHT22;619;51.472;6.628;2023-12-20T03:40:11;13.30;83.90
1259;DHT22;619;51.472;6.628;2023-12-20T03:42:37;13.30;83.80
1259;DHT22;619;51.472;6.628;2023-12-20T03:45:08;13.20;83.80
1259;DHT22;619;51.472;6.628;2023-12-20T03:47:36;13.20;83.90
1259;DHT22;619;51.472;6.628;2023-12-20T03:50:01;13.20;83.90
1259;DHT22;619;51.472;6.628;2023-12-20T03:52:32;13.10;83.70
1259;DHT22;619;51.472;6.628;2023-12-20T03:54:57;13.00;83.70
1259;DHT22;619;51.472;6.628;2023-12-20T03:57:25;13.00;84.10
1259;DHT22;619;51.472;6.628;2023-12-20T03:59:53;12.90;84.00
1259;DHT22;619;51.472;6.628;2023-12-20T04:02:19;12.90;84.20
1259;DHT22;619;51.472;6.628;2023-12-20T04:04:47;12.90;84.30
1259;DHT22;619;51.472;6.628;2023-12-20T04:07:14;12.90;84.30
1259;DHT22;619;51.472;6.628;2023-12-20T04:09:42;12.80;84.20
1259;DHT22;619;51.472;6.628;2023-12-20T04:12:12;12.90;84.40
1259;DHT22;619;51.472;6.628;2023-12-20T04:14:38;12.90;84.40
1259;DHT22;619;51.472;6.628;2023-12-20T04:17:06;12.90;84.30
1259;DHT22;619;51.472;6.628;2023-12-20T04:19:32;12.90;84.30
1259;DHT22;619;51.472;6.628;2023-12-20T04:21:57;12.80;84.30
1259;DHT22;619;51.472;6.628;2023-12-20T04:24:23;12.80;84.40
1259;DHT22;619;51.472;6.628;2023-12-20T04:26:48;12.90;84.50
1259;DHT22;619;51.472;6.628;2023-12-20T04:29:14;12.90;84.50
1259;DHT22;619;51.472;6.628;2023-12-20T04:31:40;12.90;84.40
1259;DHT22;619;51.472;6.628;2023-12-20T04:34:05;12.90;84.40
1259;DHT22;619;51.472;6.628;2023-12-20T04:36:33;12.90;84.40
1259;DHT22;619;51.472;6.628;2023-12-20T04:39:01;12.90;84.40
1259;DHT22;619;51.472;6.628;2023-12-20T04:41:29;12.90;84.20
1259;DHT22;619;51.472;6.628;2023-12-20T04:43:57;13.00;84.20
1259;DHT22;619;51.472;6.628;2023-12-20T04:46:23;13.00;84.10
1259;DHT22;619;51.472;6.628;2023-12-20T04:48:48;13.00;84.00
1259;DHT22;619;51.472;6.628;2023-12-20T04:51:14;13.00;83.90
1259;DHT22;619;51.472;6.628;2023-12-20T04:53:40;13.00;83.90
1259;DHT22;619;51.472;6.628;2023-12-20T04:56:05;13.00;83.80
1259;DHT22;619;51.472;6.628;2023-12-20T04:58:33;12.90;83.60
1259;DHT22;619;51.472;6.628;2023-12-20T05:01:05;12.90;83.60
1259;DHT22;619;51.472;6.628;2023-12-20T05:03:31;12.90;83.70
1259;DHT22;619;51.472;6.628;2023-12-20T05:05:59;12.90;83.70
1259;DHT22;619;51.472;6.628;2023-12-20T05:08:29;12.90;83.70
1259;DHT22;619;51.472;6.628;2023-12-20T05:10:57;12.90;84.00
1259;DHT22;619;51.472;6.628;2023-12-20T05:13:23;12.90;84.10
1259;DHT22;619;51.472;6.628;2023-12-20T05:15:51;12.90;84.20
1259;DHT22;619;51.472;6.628;2023-12-20T05:18:20;12.90;84.30
1259;DHT22;619;51.472;6.628;2023-12-20T05:20:46;12.90;84.40
1259;DHT22;619;51.472;6.628;2023-12-20T05:23:14;12.90;84.40
1259;DHT22;619;51.472;6.628;2023-12-20T05:25:42;12.90;84.40
1259;DHT22;619;51.472;6.628;2023-12-20T05:28:11;13.00;84.60
1259;DHT22;619;51.472;6.628;2023-12-20T05:30:36;13.00;84.50
1259;DHT22;619;51.472;6.628;2023-12-20T05:33:04;13.00;84.30
1259;DHT22;619;51.472;6.628;2023-12-20T05:35:29;13.00;84.40
1259;DHT22;619;51.472;6.628;2023-12-20T05:37:55;13.10;84.30
1259;DHT22;619;51.472;6.628;2023-12-20T05:40:21;13.10;84.30
1259;DHT22;619;51.472;6.628;2023-12-20T05:42:46;13.20;84.30
1259;DHT22;619;51.472;6.628;2023-12-20T05:45:14;13.20;84.10
1259;DHT22;619;51.472;6.628;2023-12-20T05:47:39;13.20;84.10
1259;DHT22;619;51.472;6.628;2023-12-20T05:50:05;13.30;84.00
1259;DHT22;619;51.472;6.628;2023-12-20T05:52:31;13.40;84.00
1259;DHT22;619;51.472;6.628;2023-12-20T05:54:59;13.40;83.90
1259;DHT22;619;51.472;6.628;2023-12-20T05:57:27;13.40;83.70
1259;DHT22;619;51.472;6.628;2023-12-20T05:59:53;13.40;83.60
1259;DHT22;619;51.472;6.628;2023-12-20T06:02:21;13.50;83.60
1259;DHT22;619;51.472;6.628;2023-12-20T06:04:49;13.40;83.50
1259;DHT22;619;51.472;6.628;2023-12-20T06:07:16;13.40;83.60
1259;DHT22;619;51.472;6.628;2023-12-20T06:09:41;13.40;83.60
1259;DHT22;619;51.472;6.628;2023-12-20T06:12:07;13.40;83.70
1259;DHT22;619;51.472;6.628;2023-12-20T06:14:34;13.50;83.70
1259;DHT22;619;51.472;6.628;2023-12-20T06:17:00;13.60;83.70
1259;DHT22;619;51.472;6.628;2023-12-20T06:19:28;13.60;83.30
1259;DHT22;619;51.472;6.628;2023-12-20T06:21:58;13.70;83.40
1259;DHT22;619;51.472;6.628;2023-12-20T06:24:24;13.70;83.20
1259;DHT22;619;51.472;6.628;2023-12-20T06:26:53;13.70;83.00
1259;DHT22;619;51.472;6.628;2023-12-20T06:29:25;13.70;82.90
1259;DHT22;619;51.472;6.628;2023-12-20T06:31:53;13.70;82.80
1259;DHT22;619;51.472;6.628;2023-12-20T06:34:21;13.70;82.80
1259;DHT22;619;51.472;6.628;2023-12-20T06:36:47;13.70;82.90
1259;DHT22;619;51.472;6.628;2023-12-20T06:39:12;13.70;82.80
1259;DHT22;619;51.472;6.628;2023-12-20T06:41:39;13.70;82.80
1259;DHT22;619;51.472;6.628;2023-12-20T06:44:05;13.80;82.80
1259;DHT22;619;51.472;6.628;2023-12-20T06:46:30;13.80;82.80
1259;DHT22;619;51.472;6.628;2023-12-20T06:48:58;13.80;82.90
1259;DHT22;619;51.472;6.628;2023-12-20T06:51:24;13.80;82.80
1259;DHT22;619;51.472;6.628;2023-12-20T06:53:51;13.80;82.80
1259;DHT22;619;51.472;6.628;2023-12-20T06:56:19;13.70;82.70
1259;DHT22;619;51.472;6.628;2023-12-20T06:58:47;13.80;82.70
1259;DHT22;619;51.472;6.628;2023-12-20T07:01:15;13.80;82.60
1259;DHT22;619;51.472;6.628;2023-12-20T07:03:43;13.80;82.50
1259;DHT22;619;51.472;6.628;2023-12-20T07:06:09;13.80;82.40
1259;DHT22;619;51.472;6.628;2023-12-20T07:08:37;13.80;82.40
1259;DHT22;619;51.472;6.628;2023-12-20T07:11:03;13.80;82.40
1259;DHT22;619;51.472;6.628;2023-12-20T07:13:29;13.80;82.30
1259;DHT22;619;51.472;6.628;2023-12-20T07:15:54;13.90;82.20
1259;DHT22;619;51.472;6.628;2023-12-20T07:18:20;13.80;82.10
1259;DHT22;619;51.472;6.628;2023-12-20T07:20:46;13.80;82.30
1259;DHT22;619;51.472;6.628;2023-12-20T07:23:13;13.90;82.30
1259;DHT22;619;51.472;6.628;2023-12-20T07:25:41;13.90;82.20
1259;DHT22;619;51.472;6.628;2023-12-20T07:28:09;13.90;82.20
1259;DHT22;619;51.472;6.628;2023-12-20T07:30:37;13.90;82.10
1259;DHT22;619;51.472;6.628;2023-12-20T07:33:03;13.80;82.10
1259;DHT22;619;51.472;6.628;2023-12-20T07:35:29;13.80;82.00
1259;DHT22;619;51.472;6.628;2023-12-20T07:37:54;13.90;82.00
1259;DHT22;619;51.472;6.628;2023-12-20T07:40:20;13.90;82.10
1259;DHT22;619;51.472;6.628;2023-12-20T07:42:51;13.90;82.10
1259;DHT22;619;51.472;6.628;2023-12-20T07:45:19;13.90;82.00
1259;DHT22;619;51.472;6.628;2023-12-20T07:47:47;13.90;82.00
1259;DHT22;619;51.472;6.628;2023-12-20T07:50:12;14.00;81.90
1259;DHT22;619;51.472;6.628;2023-12-20T07:52:38;14.00;81.80
1259;DHT22;619;51.472;6.628;2023-12-20T07:55:04;14.00;81.70
1259;DHT22;619;51.472;6.628;2023-12-20T07:57:29;14.00;81.60
1259;DHT22;619;51.472;6.628;2023-12-20T07:59:58;14.00;81.60
1259;DHT22;619;51.472;6.628;2023-12-20T08:02:26;13.90;81.50
1259;DHT22;619;51.472;6.628;2023-12-20T08:04:56;13.90;81.40
1259;DHT22;619;51.472;6.628;2023-12-20T08:07:23;13.80;81.50
1259;DHT22;619;51.472;6.628;2023-12-20T08:09:51;13.80;81.50
1259;DHT22;619;51.472;6.628;2023-12-20T08:12:20;13.70;81.60
1259;DHT22;619;51.472;6.628;2023-12-20T08:14:48;13.80;81.80
1259;DHT22;619;51.472;6.628;2023-12-20T08:17:13;13.70;81.60
1259;DHT22;619;51.472;6.628;2023-12-20T08:19:46;13.70;81.70
1259;DHT22;619;51.472;6.628;2023-12-20T08:22:11;13.70;81.80
1259;DHT22;619;51.472;6.628;2023-12-20T08:24:37;13.70;81.90
1259;DHT22;619;51.472;6.628;2023-12-20T08:27:04;13.70;81.90
1259;DHT22;619;51.472;6.628;2023-12-20T08:29:29;13.60;81.70
1259;DHT22;619;51.472;6.628;2023-12-20T08:31:58;13.50;82.40
1259;DHT22;619;51.472;6.628;2023-12-20T08:34:29;13.50;81.90
1259;DHT22;619;51.472;6.628;2023-12-20T08:36:59;13.50;82.10
1259;DHT22;619;51.472;6.628;2023-12-20T08:39:24;13.50;82.10
1259;DHT22;619;51.472;6.628;2023-12-20T08:41:50;13.50;81.90
1259;DHT22;619;51.472;6.628;2023-12-20T08:44:16;13.60;81.90
1259;DHT22;619;51.472;6.628;2023-12-20T08:46:46;13.70;81.70
1259;DHT22;619;51.472;6.628;2023-12-20T08:49:14;13.70;81.50
1259;DHT22;619;51.472;6.628;2023-12-20T08:51:40;13.70;81.40
1259;DHT22;619;51.472;6.628;2023-12-20T08:54:06;13.80;81.30
1259;DHT22;619;51.472;6.628;2023-12-20T08:56:34;13.80;81.30
1259;DHT22;619;51.472;6.628;2023-12-20T08:59:02;13.80;81.00
1259;DHT22;619;51.472;6.628;2023-12-20T09:01:30;13.90;81.00
1259;DHT22;619;51.472;6.628;2023-12-20T09:03:58;14.00;80.90
1259;DHT22;619;51.472;6.628;2023-12-20T09:06:24;14.00;80.90
1259;DHT22;619;51.472;6.628;2023-12-20T09:08:50;14.00;80.60
1259;DHT22;619;51.472;6.628;2023-12-20T09:11:15;14.00;80.70
1259;DHT22;619;51.472;6.628;2023-12-20T09:13:43;14.00;80.90
1259;DHT22;619;51.472;6.628;2023-12-20T09:16:12;13.90;81.00
1259;DHT22;619;51.472;6.628;2023-12-20T09:18:39;13.90;80.70
1259;DHT22;619;51.472;6.628;2023-12-20T09:21:04;13.90;80.90
1259;DHT22;619;51.472;6.628;2023-12-20T09:23:30;14.00;80.90
1259;DHT22;619;51.472;6.628;2023-12-20T09:25:55;14.00;80.80
1259;DHT22;619;51.472;6.628;2023-12-20T09:28:23;14.00;80.70
1259;DHT22;619;51.472;6.628;2023-12-20T09:30:49;14.10;80.70
1259;DHT22;619;51.472;6.628;2023-12-20T09:33:14;14.00;80.60
1259;DHT22;619;51.472;6.628;2023-12-20T09:35:44;14.00;80.50
1259;DHT22;619;51.472;6.628;2023-12-20T09:38:11;13.90;80.60
1259;DHT22;619;51.472;6.628;2023-12-20T09:40:43;14.00;80.80
1259;DHT22;619;51.472;6.628;2023-12-20T09:43:11;14.10;80.80
1259;DHT22;619;51.472;6.628;2023-12-20T09:45:42;14.10;80.50
1259;DHT22;619;51.472;6.628;2023-12-20T09:48:13;14.00;80.60
1259;DHT22;619;51.472;6.628;2023-12-20T09:50:45;14.00;80.50
1259;DHT22;619;51.472;6.628;2023-12-20T09:53:14;14.10;80.90
1259;DHT22;619;51.472;6.628;2023-12-20T09:55:41;14.20;81.20
1259;DHT22;619;51.472;6.628;2023-12-20T09:58:08;14.30;81.00
1259;DHT22;619;51.472;6.628;2023-12-20T10:00:37;14.30;80.50
1259;DHT22;619;51.472;6.628;2023-12-20T10:03:03;14.40;80.30
1259;DHT22;619;51.472;6.628;2023-12-20T10:05:32;14.40;80.20
1259;DHT22;619;51.472;6.628;2023-12-20T10:07:58;14.40;80.00
1259;DHT22;619;51.472;6.628;2023-12-20T10:10:27;14.40;80.00
1259;DHT22;619;51.472;6.628;2023-12-20T10:13:10;14.40;80.00
1259;DHT22;619;51.472;6.628;2023-12-20T10:15:37;14.50;80.10
1259;DHT22;619;51.472;6.628;2023-12-20T10:18:05;14.50;79.90
1259;DHT22;619;51.472;6.628;2023-12-20T10:20:34;14.60;79.90
1259;DHT22;619;51.472;6.628;2023-12-20T10:23:02;14.70;79.90
1259;DHT22;619;51.472;6.628;2023-12-20T10:25:29;14.70;79.70
1259;DHT22;619;51.472;6.628;2023-12-20T10:30:34;14.80;79.30
1259;DHT22;619;51.472;6.628;2023-12-20T10:33:05;14.70;78.90
1259;DHT22;619;51.472;6.628;2023-12-20T10:35:31;14.70;79.00
1259;DHT22;619;51.472;6.628;2023-12-20T10:37:56;14.70;79.10
1259;DHT22;619;51.472;6.628;2023-12-20T10:40:25;14.70;79.40
1259;DHT22;619;51.472;6.628;2023-12-20T10:42:53;14.70;79.20
1259;DHT22;619;51.472;6.628;2023-12-20T10:45:19;14.70;79.20
1259;DHT22;619;51.472;6.628;2023-12-20T10:47:47;14.70;79.20
1259;DHT22;619;51.472;6.628;2023-12-20T10:50:18;14.70;79.50
1259;DHT22;619;51.472;6.628;2023-12-20T10:52:45;14.80;79.40
1259;DHT22;619;51.472;6.628;2023-12-20T10:55:12;14.80;79.30
1259;DHT22;619;51.472;6.628;2023-12-20T10:57:38;14.90;79.30
1259;DHT22;619;51.472;6.628;2023-12-20T11:00:06;14.90;79.10
1259;DHT22;619;51.472;6.628;2023-12-20T11:02:39;14.90;79.10
1259;DHT22;619;51.472;6.628;2023-12-20T11:08:12;14.90;79.10
1259;DHT22;619;51.472;6.628;2023-12-20T11:10:49;15.00;79.30
1259;DHT22;619;51.472;6.628;2023-12-20T11:13:53;15.00;79.30
1259;DHT22;619;51.472;6.628;2023-12-20T11:16:22;15.10;79.10
1259;DHT22;619;51.472;6.628;2023-12-20T11:18:48;15.10;79.10
1259;DHT22;619;51.472;6.628;2023-12-20T11:21:18;15.20;78.90
1259;DHT22;619;51.472;6.628;2023-12-20T11:23:46;15.10;78.80
1259;DHT22;619;51.472;6.628;2023-12-20T11:26:25;15.20;79.10
1259;DHT22;619;51.472;6.628;2023-12-20T11:28:52;15.20;79.20
1259;DHT22;619;51.472;6.628;2023-12-20T11:31:17;15.30;79.00
1259;DHT22;619;51.472;6.628;2023-12-20T11:33:43;15.40;78.80
1259;DHT22;619;51.472;6.628;2023-12-20T11:36:18;15.40;78.60
1259;DHT22;619;51.472;6.628;2023-12-20T11:39:00;15.40;78.30
1259;DHT22;619;51.472;6.628;2023-12-20T11:41:26;15.40;78.30
1259;DHT22;619;51.472;6.628;2023-12-20T11:43:58;15.40;78.30
1259;DHT22;619;51.472;6.628;2023-12-20T11:46:26;15.40;78.40
1259;DHT22;619;51.472;6.628;2023-12-20T11:48:52;15.40;78.60
1259;DHT22;619;51.472;6.628;2023-12-20T11:51:20;15.50;78.70
1259;DHT22;619;51.472;6.628;2023-12-20T11:53:51;15.40;78.80
1259;DHT22;619;51.472;6.628;2023-12-20T11:56:19;15.50;78.90
1259;DHT22;619;51.472;6.628;2023-12-20T11:58:45;15.50;78.80
1259;DHT22;619;51.472;6.628;2023-12-20T12:01:11;15.50;78.80
1259;DHT22;619;51.472;6.628;2023-12-20T12:03:39;15.40;78.80
1259;DHT22;619;51.472;6.628;2023-12-20T12:06:10;15.40;78.70
1259;DHT22;619;51.472;6.628;2023-12-20T12:08:36;15.40;78.90
1259;DHT22;619;51.472;6.628;2023-12-20T12:11:02;15.40;78.90
1259;DHT22;619;51.472;6.628;2023-12-20T12:13:29;15.40;78.90
1259;DHT22;619;51.472;6.628;2023-12-20T12:15:55;15.40;79.10
1259;DHT22;619;51.472;6.628;2023-12-20T12:18:20;15.40;79.10
1259;DHT22;619;51.472;6.628;2023-12-20T12:20:50;15.40;79.20
1259;DHT22;619;51.472;6.628;2023-12-20T12:23:24;15.40;79.20
1259;DHT22;619;51.472;6.628;2023-12-20T12:25:50;15.40;79.10
1259;DHT22;619;51.472;6.628;2023-12-20T12:28:16;15.40;79.10
1259;DHT22;619;51.472;6.628;2023-12-20T12:30:42;15.50;79.10
1259;DHT22;619;51.472;6.628;2023-12-20T12:33:07;15.50;78.80
1259;DHT22;619;51.472;6.628;2023-12-20T12:35:35;15.50;78.70
1259;DHT22;619;51.472;6.628;2023-12-20T12:38:01;15.60;78.80
1259;DHT22;619;51.472;6.628;2023-12-20T12:40:34;15.60;78.60
1259;DHT22;619;51.472;6.628;2023-12-20T12:42:59;15.60;78.50
1259;DHT22;619;51.472;6.628;2023-12-20T12:45:26;15.60;78.40
1259;DHT22;619;51.472;6.628;2023-12-20T12:47:54;15.60;78.40
1259;DHT22;619;51.472;6.628;2023-12-20T12:50:20;15.60;78.30
1259;DHT22;619;51.472;6.628;2023-12-20T12:52:50;15.60;78.40
1259;DHT22;619;51.472;6.628;2023-12-20T12:55:18;15.60;78.40
1259;DHT22;619;51.472;6.628;2023-12-20T12:57:46;15.50;78.50
1259;DHT22;619;51.472;6.628;2023-12-20T13:00:12;15.50;78.60
1259;DHT22;619;51.472;6.628;2023-12-20T13:02:37;15.40;78.90
1259;DHT22;619;51.472;6.628;2023-12-20T13:05:09;15.30;79.00
1259;DHT22;619;51.472;6.628;2023-12-20T13:07:35;15.30;79.30
1259;DHT22;619;51.472;6.628;2023-12-20T13:10:01;15.40;79.70
1259;DHT22;619;51.472;6.628;2023-12-20T13:12:29;15.30;80.10
1259;DHT22;619;51.472;6.628;2023-12-20T13:14:57;15.30;80.40
1259;DHT22;619;51.472;6.628;2023-12-20T13:17:23;15.20;80.70
1259;DHT22;619;51.472;6.628;2023-12-20T13:19:53;15.30;80.90
1259;DHT22;619;51.472;6.628;2023-12-20T13:22:19;15.30;81.10
1259;DHT22;619;51.472;6.628;2023-12-20T13:24:47;15.30;81.00
1259;DHT22;619;51.472;6.628;2023-12-20T13:27:15;15.30;81.00
1259;DHT22;619;51.472;6.628;2023-12-20T13:29:41;15.30;81.10
1259;DHT22;619;51.472;6.628;2023-12-20T13:32:07;15.30;81.30
1259;DHT22;619;51.472;6.628;2023-12-20T13:34:35;15.30;81.40
1259;DHT22;619;51.472;6.628;2023-12-20T13:37:01;15.30;81.50
1259;DHT22;619;51.472;6.628;2023-12-20T13:39:26;15.30;81.60
1259;DHT22;619;51.472;6.628;2023-12-20T13:41:55;15.30;81.80
1259;DHT22;619;51.472;6.628;2023-12-20T13:44:25;15.30;81.90
1259;DHT22;619;51.472;6.628;2023-12-20T13:46:53;15.30;81.90
1259;DHT22;619;51.472;6.628;2023-12-20T13:49:19;15.30;82.00
1259;DHT22;619;51.472;6.628;2023-12-20T13:51:55;15.30;82.00
1259;DHT22;619;51.472;6.628;2023-12-20T13:54:24;15.20;81.90
1259;DHT22;619;51.472;6.628;2023-12-20T13:56:50;15.20;82.10
1259;DHT22;619;51.472;6.628;2023-12-20T13:59:22;15.10;82.30
1259;DHT22;619;51.472;6.628;2023-12-20T14:01:48;15.10;82.70
1259;DHT22;619;51.472;6.628;2023-12-20T14:04:18;15.00;82.80
1259;DHT22;619;51.472;6.628;2023-12-20T14:06:43;15.10;83.10
1259;DHT22;619;51.472;6.628;2023-12-20T14:09:11;15.10;83.30
1259;DHT22;619;51.472;6.628;2023-12-20T14:11:40;15.10;83.20
1259;DHT22;619;51.472;6.628;2023-12-20T14:14:07;15.10;83.10
1259;DHT22;619;51.472;6.628;2023-12-20T14:16:33;15.00;83.30
1259;DHT22;619;51.472;6.628;2023-12-20T14:18:59;15.00;82.90
1259;DHT22;619;51.472;6.628;2023-12-20T14:21:27;15.00;83.00
1259;DHT22;619;51.472;6.628;2023-12-20T14:23:55;15.00;83.00
1259;DHT22;619;51.472;6.628;2023-12-20T14:26:23;15.00;83.10
1259;DHT22;619;51.472;6.628;2023-12-20T14:28:53;15.10;83.30
1259;DHT22;619;51.472;6.628;2023-12-20T14:31:24;15.00;83.00
1259;DHT22;619;51.472;6.628;2023-12-20T14:33:52;15.00;83.00
1259;DHT22;619;51.472;6.628;2023-12-20T14:36:19;15.10;83.30
1259;DHT22;619;51.472;6.628;2023-12-20T14:38:46;15.10;83.10
1259;DHT22;619;51.472;6.628;2023-12-20T14:41:12;15.10;82.90
1259;DHT22;619;51.472;6.628;2023-12-20T14:43:38;15.00;83.50
1259;DHT22;619;51.472;6.628;2023-12-20T14:46:06;15.10;82.90
1259;DHT22;619;51.472;6.628;2023-12-20T14:48:31;15.10;82.80
1259;DHT22;619;51.472;6.628;2023-12-20T14:50:58;15.10;82.60
1259;DHT22;619;51.472;6.628;2023-12-20T14:53:24;15.20;82.90
1259;DHT22;619;51.472;6.628;2023-12-20T14:55:52;15.10;82.70
1259;DHT22;619;51.472;6.628;2023-12-20T14:58:18;15.10;82.60
1259;DHT22;619;51.472;6.628;2023-12-20T15:00:43;15.10;82.70
1259;DHT22;619;51.472;6.628;2023-12-20T15:03:10;15.10;82.70
1259;DHT22;619;51.472;6.628;2023-12-20T15:05:36;15.20;82.70
1259;DHT22;619;51.472;6.628;2023-12-20T15:08:02;15.20;82.60
1259;DHT22;619;51.472;6.628;2023-12-20T15:10:27;15.30;82.50
1259;DHT22;619;51.472;6.628;2023-12-20T15:12:55;15.30;82.50
1259;DHT22;619;51.472;6.628;2023-12-20T15:15:23;15.30;82.40
1259;DHT22;619;51.472;6.628;2023-12-20T15:17:49;15.20;82.20
1259;DHT22;619;51.472;6.628;2023-12-20T15:20:15;15.20;82.20
1259;DHT22;619;51.472;6.628;2023-12-20T15:22:45;15.20;82.20
1259;DHT22;619;51.472;6.628;2023-12-20T15:25:11;15.20;82.20
1259;DHT22;619;51.472;6.628;2023-12-20T15:27:37;15.30;82.20
1259;DHT22;619;51.472;6.628;2023-12-20T15:30:07;15.30;82.10
1259;DHT22;619;51.472;6.628;2023-12-20T15:32:34;15.20;82.00
1259;DHT22;619;51.472;6.628;2023-12-20T15:35:02;15.10;82.00
1259;DHT22;619;51.472;6.628;2023-12-20T15:37:28;15.20;82.20
1259;DHT22;619;51.472;6.628;2023-12-20T15:39:55;15.20;82.20
1259;DHT22;619;51.472;6.628;2023-12-20T15:42:21;15.20;82.10
1259;DHT22;619;51.472;6.628;2023-12-20T15:44:51;15.20;82.10
1259;DHT22;619;51.472;6.628;2023-12-20T15:47:17;15.20;81.90
1259;DHT22;619;51.472;6.628;2023-12-20T15:49:42;15.20;81.90
1259;DHT22;619;51.472;6.628;2023-12-20T15:52:13;15.20;81.90
1259;DHT22;619;51.472;6.628;2023-12-20T15:54:38;15.20;81.90
1259;DHT22;619;51.472;6.628;2023-12-20T15:57:06;15.30;81.90
1259;DHT22;619;51.472;6.628;2023-12-20T15:59:34;15.30;81.80
1259;DHT22;619;51.472;6.628;2023-12-20T16:02:01;15.30;81.80
1259;DHT22;619;51.472;6.628;2023-12-20T16:04:28;15.30;81.80
1259;DHT22;619;51.472;6.628;2023-12-20T16:06:56;15.20;81.70
1259;DHT22;619;51.472;6.628;2023-12-20T16:09:24;15.20;81.70
1259;DHT22;619;51.472;6.628;2023-12-20T16:11:52;15.20;81.80
1259;DHT22;619;51.472;6.628;2023-12-20T16:14:20;15.20;81.90
1259;DHT22;619;51.472;6.628;2023-12-20T16:16:48;15.30;81.80
1259;DHT22;619;51.472;6.628;2023-12-20T16:19:14;15.30;81.80
1259;DHT22;619;51.472;6.628;2023-12-20T16:21:39;15.40;81.80
1259;DHT22;619;51.472;6.628;2023-12-20T16:24:06;15.40;81.70